createdAt,value
2022-10-28T00:02:19.264Z,64.17
2022-10-28T00:04:45.562Z,64.58
2022-10-28T00:07:11.897Z,64.58
2022-10-28T00:09:38.269Z,64.98
2022-10-28T00:12:04.584Z,64.78
2022-10-28T00:14:30.929Z,64.54
2022-10-28T00:16:57.272Z,65.19
2022-10-28T00:19:23.637Z,64.96
2022-10-28T00:21:49.972Z,64.86
2022-10-28T00:24:16.317Z,65.36
2022-10-28T00:26:42.659Z,65.63
2022-10-28T00:29:08.978Z,65.46
2022-10-28T00:31:35.301Z,65.31
2022-10-28T00:34:01.625Z,64.81
2022-10-28T00:36:27.968Z,64.90
2022-10-28T00:38:54.316Z,64.73
2022-10-28T00:41:20.668Z,64.58
2022-10-28T00:43:47.015Z,64.67
2022-10-28T00:46:13.333Z,65.04
2022-10-28T00:48:39.681Z,64.62
2022-10-28T00:51:06.021Z,64.45
2022-10-28T00:53:32.350Z,64.47
2022-10-28T00:55:58.758Z,64.76
2022-10-28T00:58:25.092Z,66.46
2022-10-28T01:00:51.435Z,68.74
2022-10-28T01:03:17.799Z,67.85
2022-10-28T01:05:44.141Z,66.82
2022-10-28T01:08:10.458Z,64.52
2022-10-28T01:10:36.803Z,62.87
2022-10-28T01:13:03.157Z,63.54
2022-10-28T01:15:29.486Z,63.90
2022-10-28T01:17:55.851Z,64.49
2022-10-28T01:20:22.187Z,65.03
2022-10-28T01:22:48.512Z,65.08
2022-10-28T01:25:14.849Z,64.70
2022-10-28T01:27:41.194Z,64.69
2022-10-28T01:30:07.531Z,64.98
2022-10-28T01:32:33.876Z,65.46
2022-10-28T01:35:00.213Z,66.00
2022-10-28T01:37:26.561Z,66.53
2022-10-28T01:39:52.878Z,66.73
2022-10-28T01:42:19.256Z,67.42
2022-10-28T01:44:45.587Z,67.57
2022-10-28T01:47:11.932Z,67.18
2022-10-28T01:49:38.265Z,67.30
2022-10-28T01:52:04.589Z,67.31
2022-10-28T01:54:30.949Z,67.81
2022-10-28T01:56:57.294Z,68.09
2022-10-28T01:59:23.639Z,67.87
2022-10-28T02:01:50.044Z,67.35
2022-10-28T02:04:16.323Z,67.54
2022-10-28T02:06:42.648Z,67.47
2022-10-28T02:09:08.960Z,67.47
2022-10-28T02:11:35.320Z,67.66
2022-10-28T02:14:01.663Z,67.58
2022-10-28T02:16:27.983Z,67.42
2022-10-28T02:18:54.365Z,67.82
2022-10-28T02:21:20.698Z,67.94
2022-10-28T02:23:47.031Z,67.77
2022-10-28T02:26:13.376Z,67.99
2022-10-28T02:28:39.715Z,67.88
2022-10-28T02:31:06.057Z,67.74
2022-10-28T02:33:32.373Z,67.71
2022-10-28T02:35:58.753Z,67.84
2022-10-28T02:38:25.067Z,68.13
2022-10-28T02:43:17.748Z,68.44
2022-10-28T02:45:44.083Z,68.24
2022-10-28T02:48:10.440Z,68.29
2022-10-28T02:50:36.763Z,68.12
2022-10-28T02:53:03.083Z,67.94
2022-10-28T02:55:29.426Z,67.72
2022-10-28T02:57:55.961Z,67.62
2022-10-28T03:00:22.071Z,67.37
2022-10-28T03:02:48.413Z,67.58
2022-10-28T03:05:14.768Z,67.75
2022-10-28T03:07:41.105Z,67.59
2022-10-28T03:10:07.441Z,67.54
2022-10-28T03:12:33.775Z,67.71
2022-10-28T03:15:00.130Z,68.26
2022-10-28T03:17:26.456Z,68.43
2022-10-28T03:19:52.793Z,68.52
2022-10-28T03:22:19.113Z,68.61
2022-10-28T03:24:45.436Z,68.79
2022-10-28T03:27:11.810Z,68.64
2022-10-28T03:29:42.052Z,68.45
2022-10-28T03:32:04.486Z,68.29
2022-10-28T03:34:30.839Z,68.54
2022-10-28T03:36:57.183Z,68.87
2022-10-28T03:39:23.498Z,69.07
2022-10-28T03:41:50.253Z,69.00
2022-10-28T03:44:16.662Z,68.98
2022-10-28T03:46:43.048Z,68.68
2022-10-28T03:49:09.371Z,68.26
2022-10-28T03:51:35.704Z,68.08
2022-10-28T03:54:02.051Z,68.42
2022-10-28T03:56:28.402Z,68.93
2022-10-28T03:58:54.764Z,69.10
2022-10-28T04:01:21.258Z,69.28
2022-10-28T04:03:47.447Z,69.37
2022-10-28T04:06:13.794Z,69.60
2022-10-28T04:08:40.141Z,69.54
2022-10-28T04:11:06.465Z,69.58
2022-10-28T04:13:32.789Z,69.73
2022-10-28T04:15:59.110Z,69.60
2022-10-28T04:18:25.473Z,69.73
2022-10-28T04:20:51.838Z,69.72
2022-10-28T04:23:18.153Z,69.79
2022-10-28T04:25:44.542Z,69.76
2022-10-28T04:28:10.877Z,69.67
2022-10-28T04:30:37.203Z,69.88
2022-10-28T04:33:03.545Z,69.97
2022-10-28T04:35:29.868Z,69.94
2022-10-28T04:37:56.555Z,70.12
2022-10-28T04:40:22.585Z,69.86
2022-10-28T04:42:48.921Z,69.85
2022-10-28T04:45:15.307Z,70.21
2022-10-28T04:47:41.661Z,70.46
2022-10-28T04:50:07.996Z,69.81
2022-10-28T04:52:35.233Z,69.73
2022-10-28T04:55:01.603Z,70.04
2022-10-28T04:57:27.933Z,70.39
2022-10-28T04:59:54.282Z,70.17
2022-10-28T05:02:20.676Z,70.33
2022-10-28T05:04:46.956Z,70.62
2022-10-28T05:07:13.271Z,70.76
2022-10-28T05:09:39.614Z,70.65
2022-10-28T05:12:05.939Z,70.17
2022-10-28T05:14:32.279Z,69.79
2022-10-28T05:16:58.617Z,69.63
2022-10-28T05:19:24.951Z,69.19
2022-10-28T05:21:51.289Z,68.09
2022-10-28T05:24:17.668Z,67.57
2022-10-28T05:26:43.988Z,66.85
2022-10-28T05:29:10.334Z,66.22
2022-10-28T05:31:36.654Z,65.53
2022-10-28T05:34:02.975Z,64.92
2022-10-28T05:36:29.378Z,63.73
2022-10-28T05:38:55.718Z,63.50
2022-10-28T05:41:23.375Z,63.25
2022-10-28T05:43:48.396Z,63.30
2022-10-28T05:46:14.729Z,62.68
2022-10-28T05:48:41.068Z,62.46
2022-10-28T05:51:07.443Z,62.12
2022-10-28T05:53:33.784Z,61.11
2022-10-28T05:56:00.200Z,60.49
2022-10-28T05:58:26.534Z,60.32
2022-10-28T06:00:52.873Z,59.68
2022-10-28T06:03:19.287Z,59.29
2022-10-28T06:05:45.570Z,58.79
2022-10-28T06:08:11.894Z,58.36
2022-10-28T06:10:38.211Z,57.66
2022-10-28T06:13:03.048Z,57.17
2022-10-28T06:15:29.406Z,56.67
2022-10-28T06:17:55.753Z,57.08
2022-10-28T06:20:22.114Z,57.40
2022-10-28T06:22:48.440Z,58.67
2022-10-28T06:25:14.761Z,57.56
2022-10-28T06:27:41.122Z,57.53
2022-10-28T06:30:07.471Z,56.03
2022-10-28T06:32:33.800Z,54.15
2022-10-28T06:35:00.158Z,53.78
2022-10-28T06:37:26.481Z,53.55
2022-10-28T06:39:52.834Z,53.28
2022-10-28T06:42:19.178Z,53.14
2022-10-28T06:44:45.505Z,52.83
2022-10-28T06:47:13.366Z,52.64
2022-10-28T06:49:39.703Z,52.60
2022-10-28T06:52:06.045Z,53.23
2022-10-28T06:54:32.443Z,53.13
2022-10-28T06:56:58.763Z,52.31
2022-10-28T06:59:25.083Z,51.17
2022-10-28T07:01:51.536Z,50.34
2022-10-28T07:04:17.737Z,49.67
2022-10-28T07:06:46.357Z,48.99
2022-10-28T07:09:10.384Z,48.96
2022-10-28T07:11:36.708Z,48.72
2022-10-28T07:14:03.092Z,48.85
2022-10-28T07:16:29.402Z,49.20
2022-10-28T07:18:55.749Z,49.25
2022-10-28T07:21:22.094Z,49.38
2022-10-28T07:23:48.439Z,49.60
2022-10-28T07:26:14.781Z,49.06
2022-10-28T07:28:41.124Z,48.77
2022-10-28T07:31:07.496Z,48.30
2022-10-28T07:33:33.783Z,48.29
2022-10-28T07:36:00.104Z,46.85
2022-10-28T07:38:26.454Z,46.74
2022-10-28T07:40:52.793Z,46.72
2022-10-28T07:43:19.100Z,45.13
2022-10-28T07:45:45.467Z,45.88
2022-10-28T07:48:11.826Z,47.25
2022-10-28T07:50:38.144Z,45.72
2022-10-28T07:53:04.556Z,44.90
2022-10-28T07:55:30.874Z,45.19
2022-10-28T07:57:57.472Z,45.51
2022-10-28T08:00:29.431Z,44.56
2022-10-28T08:02:55.798Z,44.07
2022-10-28T08:05:22.148Z,42.70
2022-10-28T08:07:50.334Z,42.85
2022-10-28T08:10:16.686Z,43.09
2022-10-28T08:12:43.007Z,42.28
2022-10-28T08:15:09.392Z,42.36
2022-10-28T08:17:35.759Z,42.61
2022-10-28T08:20:02.104Z,42.08
2022-10-28T08:22:28.435Z,42.06
2022-10-28T08:24:54.778Z,41.13
2022-10-28T08:27:21.098Z,40.92
2022-10-28T08:29:47.429Z,40.02
2022-10-28T08:32:13.839Z,39.99
2022-10-28T08:34:42.658Z,40.55
2022-10-28T08:37:06.536Z,40.82
2022-10-28T08:39:32.856Z,39.61
2022-10-28T08:41:59.252Z,39.66
2022-10-28T08:44:25.501Z,39.62
2022-10-28T08:46:51.881Z,39.68
2022-10-28T08:49:18.200Z,39.05
2022-10-28T08:51:44.548Z,37.83
2022-10-28T08:54:10.918Z,37.38
2022-10-28T08:56:37.289Z,36.28
2022-10-28T08:59:03.642Z,36.57
2022-10-28T09:01:30.147Z,37.20
2022-10-28T09:03:56.314Z,37.09
2022-10-28T09:06:22.701Z,36.71
2022-10-28T09:08:49.045Z,36.43
2022-10-28T09:11:15.380Z,35.63
2022-10-28T09:13:41.712Z,35.20
2022-10-28T09:16:10.198Z,35.18
2022-10-28T09:18:34.448Z,35.22
2022-10-28T09:21:00.798Z,34.76
2022-10-28T09:23:27.260Z,34.31
2022-10-28T09:25:53.585Z,34.71
2022-10-28T09:28:19.933Z,33.89
2022-10-28T09:30:46.305Z,34.65
2022-10-28T09:33:12.689Z,34.06
2022-10-28T09:35:39.035Z,34.40
2022-10-28T09:38:05.359Z,34.43
2022-10-28T09:40:31.713Z,33.66
2022-10-28T09:42:58.061Z,34.00
2022-10-28T09:45:24.378Z,34.66
2022-10-28T09:47:50.909Z,34.58
2022-10-28T09:50:17.073Z,34.13
2022-10-28T09:52:43.415Z,34.14
2022-10-28T09:55:09.741Z,33.97
2022-10-28T09:57:36.078Z,34.00
2022-10-28T10:00:02.489Z,34.21
2022-10-28T10:02:28.868Z,34.08
2022-10-28T10:04:55.276Z,33.77
2022-10-28T10:07:21.603Z,32.52
2022-10-28T10:09:48.044Z,32.79
2022-10-28T10:12:14.390Z,32.59
2022-10-28T10:14:40.705Z,32.53
2022-10-28T10:17:07.083Z,31.90
2022-10-28T10:19:33.436Z,31.74
2022-10-28T10:21:59.780Z,31.69
2022-10-28T10:24:26.138Z,31.65
2022-10-28T10:26:52.449Z,31.63
2022-10-28T10:29:18.788Z,31.80
2022-10-28T10:31:45.138Z,31.59
2022-10-28T10:34:11.475Z,31.24
2022-10-28T10:36:37.797Z,31.31
2022-10-28T10:39:04.123Z,30.71
2022-10-28T10:41:30.498Z,31.52
2022-10-28T10:43:56.909Z,30.92
2022-10-28T10:46:23.236Z,30.49
2022-10-28T10:48:49.632Z,30.41
2022-10-28T10:51:15.950Z,30.20
2022-10-28T10:53:42.293Z,29.10
2022-10-28T10:56:08.653Z,29.27
2022-10-28T10:58:35.022Z,28.44
2022-10-28T11:01:01.365Z,28.61
2022-10-28T11:03:27.690Z,29.10
2022-10-28T11:06:05.496Z,29.57
2022-10-28T11:08:20.383Z,29.11
2022-10-28T11:10:46.725Z,28.82
2022-10-28T11:13:13.064Z,28.50
2022-10-28T11:15:39.408Z,28.09
2022-10-28T11:18:05.750Z,27.62
2022-10-28T11:20:32.098Z,27.49
2022-10-28T11:22:58.411Z,26.71
2022-10-28T11:25:24.764Z,27.35
2022-10-28T11:27:55.335Z,27.48
2022-10-28T11:30:17.445Z,27.38
2022-10-28T11:32:54.634Z,28.18
2022-10-28T11:35:10.154Z,28.45
2022-10-28T11:37:36.481Z,28.65
2022-10-28T11:40:02.809Z,28.44
2022-10-28T11:42:29.203Z,27.70
2022-10-28T11:44:55.677Z,27.22
2022-10-28T11:47:21.875Z,26.77
2022-10-28T11:49:48.226Z,27.15
2022-10-28T11:52:14.565Z,27.65
2022-10-28T11:54:40.886Z,26.94
2022-10-28T11:57:07.252Z,26.83
2022-10-28T11:59:33.569Z,26.65
2022-10-28T12:02:00.014Z,26.58
2022-10-28T12:04:26.255Z,26.35
2022-10-28T12:06:52.605Z,25.94
2022-10-28T12:09:19.031Z,26.19
2022-10-28T12:11:45.422Z,26.47
2022-10-28T12:14:11.716Z,26.00
2022-10-28T12:16:38.091Z,26.42
2022-10-28T12:19:04.432Z,27.66
2022-10-28T12:21:30.857Z,27.74
2022-10-28T12:23:57.084Z,27.65
2022-10-28T12:26:23.402Z,27.54
2022-10-28T12:28:49.775Z,27.68
2022-10-28T12:31:16.124Z,27.88
2022-10-28T12:33:42.448Z,27.61
2022-10-28T12:36:08.788Z,27.03
2022-10-28T12:38:35.114Z,27.21
2022-10-28T12:41:01.454Z,27.44
2022-10-28T12:43:27.808Z,27.57
2022-10-28T12:45:54.148Z,28.05
2022-10-28T12:48:20.518Z,27.83
2022-10-28T12:50:46.883Z,27.60
2022-10-28T12:53:13.222Z,27.50
2022-10-28T12:55:39.579Z,27.52
2022-10-28T12:58:05.908Z,27.54
2022-10-28T13:00:32.250Z,27.57
2022-10-28T13:02:58.606Z,26.97
2022-10-28T13:05:24.928Z,27.35
2022-10-28T13:07:53.544Z,27.21
2022-10-28T13:10:17.620Z,26.65
2022-10-28T13:12:43.918Z,27.15
2022-10-28T13:15:10.349Z,27.88
2022-10-28T13:17:36.578Z,27.82
2022-10-28T13:20:02.925Z,28.15
2022-10-28T13:22:29.275Z,28.98
2022-10-28T13:24:55.594Z,29.74
2022-10-28T13:27:22.021Z,29.81
2022-10-28T13:29:48.305Z,30.65
2022-10-28T13:32:14.640Z,30.66
2022-10-28T13:34:40.963Z,30.67
2022-10-28T13:37:07.313Z,30.87
2022-10-28T13:39:33.655Z,30.88
2022-10-28T13:41:59.977Z,31.12
2022-10-28T13:44:26.331Z,31.28
2022-10-28T13:46:52.667Z,31.81
2022-10-28T13:49:19.011Z,32.18
2022-10-28T13:51:45.330Z,32.28
2022-10-28T13:54:11.678Z,32.27
2022-10-28T13:56:38.091Z,32.21
2022-10-28T13:59:04.319Z,32.53
2022-10-28T14:01:30.852Z,32.51
2022-10-28T14:03:57.054Z,32.16
2022-10-28T14:06:23.414Z,32.19
2022-10-28T14:08:49.751Z,32.51
2022-10-28T14:11:16.096Z,32.23
2022-10-28T14:13:42.441Z,32.09
2022-10-28T14:16:11.695Z,32.33
2022-10-28T14:18:43.826Z,32.61
2022-10-28T14:21:01.750Z,32.64
2022-10-28T14:23:27.830Z,32.83
2022-10-28T14:25:54.179Z,32.55
2022-10-28T14:28:20.526Z,32.48
2022-10-28T14:30:46.862Z,32.65
2022-10-28T14:33:13.215Z,32.72
2022-10-28T14:35:39.566Z,32.89
2022-10-28T14:38:05.912Z,33.16
2022-10-28T14:40:32.268Z,33.27
2022-10-28T14:42:58.613Z,33.59
2022-10-28T14:45:24.934Z,33.53
2022-10-28T14:47:51.334Z,33.41
2022-10-28T14:50:17.579Z,33.62
2022-10-28T14:52:43.944Z,33.76
2022-10-28T14:55:10.294Z,33.80
2022-10-28T14:57:36.627Z,33.88
2022-10-28T15:00:02.967Z,33.82
2022-10-28T15:02:29.411Z,33.96
2022-10-28T15:04:55.654Z,34.17
2022-10-28T15:07:21.979Z,34.40
2022-10-28T15:09:48.323Z,34.19
2022-10-28T15:12:14.698Z,34.86
2022-10-28T15:14:41.045Z,35.43
2022-10-28T15:17:07.371Z,35.44
2022-10-28T15:19:33.713Z,35.81
2022-10-28T15:22:00.049Z,35.99
2022-10-28T15:24:26.391Z,36.16
2022-10-28T15:26:52.741Z,36.57
2022-10-28T15:29:19.117Z,36.32
2022-10-28T15:31:45.439Z,37.06
2022-10-28T15:34:11.761Z,37.36
2022-10-28T15:36:38.176Z,37.71
2022-10-28T15:39:04.430Z,37.82
2022-10-28T15:41:30.762Z,38.21
2022-10-28T15:43:57.143Z,38.59
2022-10-28T15:46:23.469Z,38.60
2022-10-28T15:48:49.826Z,38.63
2022-10-28T15:51:16.189Z,38.51
2022-10-28T15:53:42.543Z,38.12
2022-10-28T15:56:08.885Z,37.99
2022-10-28T15:58:35.231Z,37.77
2022-10-28T16:01:01.696Z,37.85
2022-10-28T16:05:54.300Z,38.02
2022-10-28T16:08:20.639Z,37.73
2022-10-28T16:10:46.961Z,37.77
2022-10-28T16:13:13.306Z,37.46
2022-10-28T16:15:39.689Z,37.60
2022-10-28T16:18:06.022Z,37.55
2022-10-28T16:20:32.438Z,37.67
2022-10-28T16:22:58.712Z,37.41
2022-10-28T16:25:25.100Z,37.64
2022-10-28T16:27:51.679Z,37.70
2022-10-28T16:30:17.822Z,37.93
2022-10-28T16:32:44.143Z,37.99
2022-10-28T16:35:10.466Z,37.95
2022-10-28T16:37:40.416Z,37.93
2022-10-28T16:40:03.186Z,37.82
2022-10-28T16:42:29.530Z,37.98
2022-10-28T16:44:55.853Z,38.35
2022-10-28T16:47:22.187Z,38.24
2022-10-28T16:49:52.392Z,38.63
2022-10-28T16:52:14.852Z,38.71
2022-10-28T16:54:41.205Z,39.14
2022-10-28T16:57:07.547Z,39.39
2022-10-28T16:59:33.869Z,39.35
2022-10-28T17:02:00.353Z,39.57
2022-10-28T17:04:26.636Z,39.71
2022-10-28T17:06:52.975Z,39.92
2022-10-28T17:09:19.298Z,40.07
2022-10-28T17:11:45.653Z,40.35
2022-10-28T17:14:12.016Z,40.37
2022-10-28T17:16:40.685Z,40.27
2022-10-28T17:19:04.701Z,40.22
2022-10-28T17:21:31.037Z,40.36
2022-10-28T17:23:57.378Z,40.82
2022-10-28T17:26:23.688Z,40.91
2022-10-28T17:28:50.029Z,41.17
2022-10-28T17:31:19.184Z,41.48
2022-10-28T17:33:42.777Z,41.91
2022-10-28T17:36:09.146Z,42.44
2022-10-28T17:38:35.541Z,43.08
2022-10-28T17:41:01.859Z,43.64
2022-10-28T17:43:28.190Z,43.71
2022-10-28T17:45:54.516Z,43.60
2022-10-28T17:48:20.919Z,43.87
2022-10-28T17:50:47.227Z,44.01
2022-10-28T17:53:13.568Z,44.18
2022-10-28T17:55:39.904Z,44.48
2022-10-28T17:58:06.291Z,44.55
2022-10-28T18:00:32.616Z,44.82
2022-10-28T18:02:59.097Z,44.97
2022-10-28T18:05:25.389Z,45.20
2022-10-28T18:07:51.971Z,45.20
2022-10-28T18:10:18.106Z,45.44
2022-10-28T18:12:44.447Z,45.61
2022-10-28T18:15:10.788Z,45.62
2022-10-28T18:17:37.133Z,46.03
2022-10-28T18:20:03.482Z,46.51
2022-10-28T18:22:29.851Z,46.51
2022-10-28T18:24:56.237Z,46.51
2022-10-28T18:27:22.600Z,47.03
2022-10-28T18:29:49.005Z,47.08
2022-10-28T18:32:15.346Z,47.44
2022-10-28T18:34:41.731Z,47.72
2022-10-28T18:37:08.013Z,48.19
2022-10-28T18:39:34.349Z,49.05
2022-10-28T18:42:00.693Z,49.22
2022-10-28T18:44:27.039Z,49.14
2022-10-28T18:46:53.376Z,48.81
2022-10-28T18:49:19.722Z,48.84
2022-10-28T18:51:46.447Z,48.78
2022-10-28T18:54:12.787Z,48.23
2022-10-28T18:56:39.114Z,47.99
2022-10-28T18:59:05.448Z,48.33
2022-10-28T19:01:31.973Z,48.29
2022-10-28T19:03:58.111Z,47.67
2022-10-28T19:06:24.565Z,47.91
2022-10-28T19:08:50.881Z,47.15
2022-10-28T19:11:17.225Z,47.29
2022-10-28T19:13:43.558Z,47.15
2022-10-28T19:16:09.983Z,47.61
2022-10-28T19:18:36.227Z,47.67
2022-10-28T19:21:02.629Z,47.84
2022-10-28T19:23:28.989Z,48.67
2022-10-28T19:25:55.318Z,49.21
2022-10-28T19:28:21.640Z,49.32
2022-10-28T19:30:47.987Z,52.59
2022-10-28T19:33:14.398Z,53.27
2022-10-28T19:35:40.723Z,52.48
2022-10-28T19:38:07.068Z,52.59
2022-10-28T19:40:33.537Z,52.06
2022-10-28T19:42:59.916Z,53.27
2022-10-28T19:45:26.253Z,51.86
2022-10-28T19:47:52.904Z,51.23
2022-10-28T19:50:18.965Z,50.56
2022-10-28T19:52:45.311Z,50.45
2022-10-28T19:55:14.901Z,51.10
2022-10-28T19:57:37.991Z,51.46
2022-10-28T20:00:04.357Z,51.56
2022-10-28T20:02:30.810Z,51.64
2022-10-28T20:04:57.058Z,52.14
2022-10-28T20:07:23.409Z,52.57
2022-10-28T20:09:49.821Z,52.97
2022-10-28T20:12:16.089Z,52.96
2022-10-28T20:14:42.417Z,53.37
2022-10-28T20:17:08.740Z,53.82
2022-10-28T20:19:35.131Z,54.60
2022-10-28T20:22:01.446Z,55.15
2022-10-28T20:24:27.796Z,55.46
2022-10-28T20:26:54.145Z,55.81
2022-10-28T20:29:20.491Z,55.97
2022-10-28T20:31:46.811Z,56.03
2022-10-28T20:34:13.168Z,56.35
2022-10-28T20:36:39.490Z,55.96
2022-10-28T20:39:05.815Z,55.77
2022-10-28T20:41:32.193Z,55.44
2022-10-28T20:43:58.514Z,55.41
2022-10-28T20:46:24.838Z,55.62
2022-10-28T20:48:51.165Z,55.70
2022-10-28T20:51:17.504Z,55.95
2022-10-28T20:53:43.847Z,56.09
2022-10-28T20:56:10.181Z,56.63
2022-10-28T20:58:36.512Z,56.80
2022-10-28T21:01:02.831Z,56.80
2022-10-28T21:03:29.223Z,57.10
2022-10-28T21:05:55.548Z,57.53
2022-10-28T21:08:21.897Z,58.01
2022-10-28T21:10:48.240Z,58.36
2022-10-28T21:13:14.686Z,58.46
2022-10-28T21:15:41.006Z,58.57
2022-10-28T21:18:07.412Z,57.93
2022-10-28T21:20:33.759Z,57.86
2022-10-28T21:23:00.089Z,57.33
2022-10-28T21:25:26.427Z,57.23
2022-10-28T21:27:52.791Z,57.46
2022-10-28T21:30:19.156Z,57.55
2022-10-28T21:32:45.435Z,57.43
2022-10-28T21:35:11.792Z,57.56
2022-10-28T21:37:38.117Z,57.62
2022-10-28T21:40:04.524Z,58.04
2022-10-28T21:42:30.846Z,58.20
2022-10-28T21:44:57.195Z,58.21
2022-10-28T21:47:23.541Z,58.42
2022-10-28T21:49:49.877Z,58.58
2022-10-28T21:52:16.208Z,58.99
2022-10-28T21:54:42.598Z,59.29
2022-10-28T21:57:08.906Z,59.75
2022-10-28T21:59:35.223Z,59.58
2022-10-28T22:02:01.664Z,59.83
2022-10-28T22:04:27.896Z,59.80
2022-10-28T22:06:54.241Z,60.00
2022-10-28T22:09:20.580Z,60.34
2022-10-28T22:11:46.903Z,59.77
2022-10-28T22:14:13.286Z,59.81
2022-10-28T22:16:39.608Z,60.09
2022-10-28T22:19:05.955Z,60.40
2022-10-28T22:21:32.297Z,61.18
2022-10-28T22:23:58.634Z,61.28
2022-10-28T22:26:25.018Z,61.20
2022-10-28T22:28:51.332Z,60.98
2022-10-28T22:31:17.658Z,60.94
2022-10-28T22:33:44.066Z,61.41
2022-10-28T22:36:10.334Z,61.41
2022-10-28T22:38:36.656Z,60.99
2022-10-28T22:41:02.984Z,61.18
2022-10-28T22:43:29.332Z,61.61
2022-10-28T22:45:55.676Z,61.75
2022-10-28T22:48:21.995Z,61.91
2022-10-28T22:50:48.333Z,62.24
2022-10-28T22:53:14.655Z,62.17
2022-10-28T22:55:40.981Z,61.98
2022-10-28T22:58:07.327Z,62.24
2022-10-28T23:00:33.646Z,62.20
2022-10-28T23:03:00.415Z,62.47
2022-10-28T23:05:26.335Z,62.66
2022-10-28T23:07:52.678Z,62.87
2022-10-28T23:10:19.044Z,62.67
2022-10-28T23:12:45.384Z,62.77
2022-10-28T23:15:11.725Z,63.22
2022-10-28T23:17:38.043Z,63.46
2022-10-28T23:20:04.387Z,63.29
2022-10-28T23:22:30.762Z,63.54
2022-10-28T23:24:57.107Z,63.44
2022-10-28T23:27:23.448Z,63.32
2022-10-28T23:29:49.802Z,62.98
2022-10-28T23:32:16.129Z,63.14
2022-10-28T23:34:42.453Z,63.05
2022-10-28T23:37:08.775Z,63.09
2022-10-28T23:39:35.124Z,63.15
2022-10-28T23:42:01.460Z,63.24
2022-10-28T23:44:27.782Z,63.07
2022-10-28T23:46:54.121Z,63.40
2022-10-28T23:49:20.458Z,63.67
2022-10-28T23:51:46.808Z,63.91
2022-10-28T23:54:13.132Z,64.07
2022-10-28T23:56:39.474Z,64.25
2022-10-28T23:59:05.784Z,64.26
